Time;durP1;ratioP1;P1;durP2;ratioP2;P2;SDS_P1;SDS_P2;PMS_P1;PMS_P2;Temp;Humidity;BMP_temperature;BMP_pressure;BME280_temperature;BME280_humidity;BME280_pressure;Samples;Min_cycle;Max_cycle;Signal;HPM_P1;HPM_P2
2023/05/18 00:00:27;;;;;;;;;;;;;;;18.09;62.56;100792.97;5069102;28;20356;-84
2023/05/18 00:02:53;;;;;;;;;;;;;;;18.06;62.14;100783.22;5072986;28;19923;-84
2023/05/18 00:05:18;;;;;;;;;;;;;;;18.02;62.38;100785.75;5079020;28;20010;-83
2023/05/18 00:07:45;;;;;;;;;;;;;;;18.03;62.17;100776.94;5037516;28;20115;-85
2023/05/18 00:10:10;;;;;;;;;;;;;;;18.01;61.90;100779.59;5036672;28;19916;-85
2023/05/18 00:12:36;;;;;;;;;;;;;;;18.06;61.95;100780.56;5036208;28;19923;-85
2023/05/18 00:15:01;;;;;;;;;;;;;;;18.05;61.91;100769.94;5042795;28;19924;-84
2023/05/18 00:17:26;;;;;;;;;;;;;;;18.01;61.86;100776.03;5055396;28;20007;-84
2023/05/18 00:19:52;;;;;;;;;;;;;;;17.98;61.54;100766.28;5056048;28;19916;-84
2023/05/18 00:22:17;;;;;;;;;;;;;;;17.98;62.72;100768.91;5067670;28;20394;-85
2023/05/18 00:24:44;;;;;;;;;;;;;;;17.97;62.30;100759.22;5073417;28;20386;-85
2023/05/18 00:27:09;;;;;;;;;;;;;;;17.99;62.98;100764.53;5050093;28;19924;-83
2023/05/18 00:29:35;;;;;;;;;;;;;;;18.00;61.97;100756.63;5055222;28;20305;-84
2023/05/18 00:32:00;;;;;;;;;;;;;;;18.02;62.67;100765.50;5054015;28;19924;-84
2023/05/18 00:34:26;;;;;;;;;;;;;;;18.02;62.32;100765.50;5069761;28;19928;-84
2023/05/18 00:36:51;;;;;;;;;;;;;;;17.98;62.59;100768.91;5067472;28;19963;-83
2023/05/18 00:39:16;;;;;;;;;;;;;;;17.99;63.12;100767.16;5043889;28;19916;-83
2023/05/18 00:41:42;;;;;;;;;;;;;;;17.94;62.39;100774.09;5071944;28;19920;-84
2023/05/18 00:44:07;;;;;;;;;;;;;;;17.90;62.80;100771.38;5052534;28;20464;-84
2023/05/18 00:46:33;;;;;;;;;;;;;;;17.96;62.35;100765.34;5036549;28;20397;-84
2023/05/18 00:49:00;;;;;;;;;;;;;;;17.96;62.95;100769.75;5083049;28;19947;-85
2023/05/18 00:51:26;;;;;;;;;;;;;;;17.94;62.12;100782.91;5069656;28;19966;-85
2023/05/18 00:53:52;;;;;;;;;;;;;;;17.93;63.25;100785.50;5072956;28;19919;-84
2023/05/18 00:56:17;;;;;;;;;;;;;;;17.93;62.71;100786.44;5089115;28;19912;-84
2023/05/18 00:58:42;;;;;;;;;;;;;;;17.98;62.73;100783.88;5071288;28;19982;-83
2023/05/18 01:01:08;;;;;;;;;;;;;;;17.95;62.77;100789.09;5057441;28;20371;-85
2023/05/18 01:03:36;;;;;;;;;;;;;;;17.95;62.10;100791.72;5076897;28;19912;-84
2023/05/18 01:06:04;;;;;;;;;;;;;;;17.94;62.32;100789.94;5065590;28;19912;-85
2023/05/18 01:08:30;;;;;;;;;;;;;;;17.86;62.42;100782.75;5076824;28;19920;-84
2023/05/18 01:11:00;;;;;;;;;;;;;;;17.87;62.69;100787.16;5055961;28;19999;-85
2023/05/18 01:13:28;;;;;;;;;;;;;;;17.94;63.14;100784.66;5067844;28;19916;-83
2023/05/18 01:15:53;;;;;;;;;;;;;;;17.88;62.43;100794.22;5072625;28;19912;-84
2023/05/18 01:18:24;;;;;;;;;;;;;;;17.88;62.17;100785.41;5057358;28;19977;-84
2023/05/18 01:21:00;;;;;;;;;;;;;;;17.84;62.86;100775.63;5056200;28;19928;-83
2023/05/18 01:23:34;;;;;;;;;;;;;;;17.85;62.86;100775.66;5069433;28;19931;-83
2023/05/18 01:26:05;;;;;;;;;;;;;;;17.86;63.20;100782.75;5094236;28;19916;-85
2023/05/18 01:28:31;;;;;;;;;;;;;;;17.95;62.46;100789.09;5075099;28;20373;-84
2023/05/18 01:30:57;;;;;;;;;;;;;;;17.95;63.54;100789.09;5075257;28;19920;-84
2023/05/18 01:33:25;;;;;;;;;;;;;;;17.86;62.69;100801.25;5075472;28;19919;-84
2023/05/18 01:35:51;;;;;;;;;;;;;;;17.90;62.53;100791.63;5071777;28;19939;-83
2023/05/18 01:38:18;;;;;;;;;;;;;;;17.89;63.33;100805.69;5072373;28;20397;-83
2023/05/18 01:40:51;;;;;;;;;;;;;;;17.85;62.49;100806.47;5073809;28;19917;-84
2023/05/18 01:43:17;;;;;;;;;;;;;;;17.95;63.17;100797.00;5075559;28;19942;-85
2023/05/18 01:45:43;;;;;;;;;;;;;;;17.92;62.56;100810.16;5091707;28;20377;-84
2023/05/18 01:48:08;;;;;;;;;;;;;;;17.85;62.93;100798.56;5062331;28;20041;-84
2023/05/18 01:50:38;;;;;;;;;;;;;;;17.83;62.57;100798.50;5073330;28;19920;-84
2023/05/18 01:53:03;;;;;;;;;;;;;;;17.80;62.73;100803.69;5072354;28;19972;-84
2023/05/18 01:55:28;;;;;;;;;;;;;;;17.84;63.48;100813.50;5092880;28;20032;-83
2023/05/18 01:57:54;;;;;;;;;;;;;;;17.85;62.98;100822.31;5074057;28;19923;-83
2023/05/18 02:00:19;;;;;;;;;;;;;;;17.94;63.06;100824.31;5075036;28;19927;-82
2023/05/18 02:02:45;;;;;;;;;;;;;;;17.86;62.48;100830.31;5091406;28;20414;-83
2023/05/18 02:05:11;;;;;;;;;;;;;;;17.83;62.64;100837.25;5093055;28;19917;-85
2023/05/18 02:07:37;;;;;;;;;;;;;;;17.88;62.49;100831.19;5074644;28;20290;-82
2023/05/18 02:10:02;;;;;;;;;;;;;;;17.89;62.43;100835.66;5073228;28;20377;-84
2023/05/18 02:12:28;;;;;;;;;;;;;;;17.80;62.44;100837.13;5091078;28;19923;-83
2023/05/18 02:14:54;;;;;;;;;;;;;;;17.81;63.79;100833.63;5074547;28;19923;-85
2023/05/18 02:17:20;;;;;;;;;;;;;;;17.80;63.33;100830.09;5091363;28;20482;-82
2023/05/18 02:19:46;;;;;;;;;;;;;;;17.83;63.22;100840.78;5089711;28;20551;-84
2023/05/18 02:22:11;;;;;;;;;;;;;;;17.86;63.67;100851.44;5091244;28;19977;-83
2023/05/18 02:24:37;;;;;;;;;;;;;;;17.87;63.20;100849.69;5092257;28;20438;-83
2023/05/18 02:27:02;;;;;;;;;;;;;;;17.87;63.23;100858.50;5092896;28;20567;-83
2023/05/18 02:29:27;;;;;;;;;;;;;;;17.92;63.21;100861.25;5069325;28;20354;-83
2023/05/18 02:31:53;;;;;;;;;;;;;;;17.94;63.25;100866.56;5073885;28;19916;-84
2023/05/18 02:34:20;;;;;;;;;;;;;;;17.94;63.44;100866.56;5092402;28;20408;-83
2023/05/18 02:36:47;;;;;;;;;;;;;;;17.98;62.98;100865.81;5088920;28;19917;-84
2023/05/18 02:39:13;;;;;;;;;;;;;;;17.93;62.94;100868.34;5068723;28;20285;-84
2023/05/18 02:41:38;;;;;;;;;;;;;;;17.86;62.47;100863.72;5069388;28;20400;-83
2023/05/18 02:44:04;;;;;;;;;;;;;;;17.86;63.14;100869.00;5091605;28;20006;-84
2023/05/18 02:46:29;;;;;;;;;;;;;;;17.86;62.64;100867.28;5074119;28;19916;-84
2023/05/18 02:48:55;;;;;;;;;;;;;;;17.88;63.22;100868.19;5092098;28;19919;-84
2023/05/18 02:51:21;;;;;;;;;;;;;;;17.73;63.33;100873.03;5072942;28;19927;-83
2023/05/18 02:53:47;;;;;;;;;;;;;;;17.82;62.73;100885.59;5070861;28;19920;-82
2023/05/18 02:56:12;;;;;;;;;;;;;;;17.74;63.22;100880.13;5072367;28;20376;-82
2023/05/18 02:58:38;;;;;;;;;;;;;;;17.68;63.29;100878.22;5073818;28;19922;-84
2023/05/18 03:01:06;;;;;;;;;;;;;;;17.75;64.14;100883.66;5072946;28;19970;-83
2023/05/18 03:03:33;;;;;;;;;;;;;;;17.69;63.41;100887.03;5072855;28;19916;-85
2023/05/18 03:05:59;;;;;;;;;;;;;;;17.80;63.81;100884.66;5071975;28;19973;-83
2023/05/18 03:08:25;;;;;;;;;;;;;;;17.78;63.66;100881.09;5090365;28;19927;-82
2023/05/18 03:10:51;;;;;;;;;;;;;;;17.83;63.47;100892.72;5054930;28;19916;-82
2023/05/18 03:13:16;;;;;;;;;;;;;;;17.82;63.81;100883.91;5087028;28;20028;-82
2023/05/18 03:15:44;;;;;;;;;;;;;;;17.83;62.71;100890.97;5065530;28;20307;-84
2023/05/18 03:18:09;;;;;;;;;;;;;;;17.84;62.96;100886.56;5091908;28;19916;-83
2023/05/18 03:20:36;;;;;;;;;;;;;;;17.74;63.98;100882.78;5091515;28;20312;-83
2023/05/18 03:23:02;;;;;;;;;;;;;;;17.78;63.86;100883.72;5090619;28;20389;-84
2023/05/18 03:25:31;;;;;;;;;;;;;;;17.69;63.24;100882.66;5073343;28;19916;-84
2023/05/18 03:27:57;;;;;;;;;;;;;;;17.67;63.20;100886.09;5088023;28;20448;-82
2023/05/18 03:30:22;;;;;;;;;;;;;;;17.65;63.70;100885.16;5067286;28;19922;-83
2023/05/18 03:32:48;;;;;;;;;;;;;;;17.68;63.52;100879.97;5088542;28;20373;-83
2023/05/18 03:35:14;;;;;;;;;;;;;;;17.75;63.99;100878.38;5072137;28;19916;-84
2023/05/18 03:37:39;;;;;;;;;;;;;;;17.74;63.35;100887.13;5072043;28;19952;-83
2023/05/18 03:40:12;;;;;;;;;;;;;;;17.76;63.30;100882.78;5068005;28;19923;-83
2023/05/18 03:42:38;;;;;;;;;;;;;;;17.79;64.07;100890.81;5057076;28;19920;-83
2023/05/18 03:45:03;;;;;;;;;;;;;;;17.71;64.04;100890.59;5068391;28;19923;-83
2023/05/18 03:47:29;;;;;;;;;;;;;;;17.76;63.70;100890.72;5073074;28;19928;-83
2023/05/18 03:49:54;;;;;;;;;;;;;;;17.73;63.74;100898.56;5073361;28;19916;-84
2023/05/18 03:52:21;;;;;;;;;;;;;;;17.71;64.13;100903.81;5089767;28;19923;-84
2023/05/18 03:54:48;;;;;;;;;;;;;;;17.77;63.90;100896.03;5044576;28;20424;-84
2023/05/18 03:57:14;;;;;;;;;;;;;;;17.73;63.88;100898.56;5062699;28;19913;-84
2023/05/18 03:59:40;;;;;;;;;;;;;;;17.70;63.13;100904.66;5067722;28;19924;-84
2023/05/18 04:02:06;;;;;;;;;;;;;;;17.70;64.24;100909.94;5082393;28;19916;-84
2023/05/18 04:04:32;;;;;;;;;;;;;;;17.71;64.06;100911.72;5067078;28;19955;-84
2023/05/18 04:07:00;;;;;;;;;;;;;;;17.68;63.58;100916.94;5073168;28;19916;-84
2023/05/18 04:09:26;;;;;;;;;;;;;;;17.67;64.53;100913.41;5043352;28;20336;-83
2023/05/18 04:11:52;;;;;;;;;;;;;;;17.75;64.58;100915.34;5091375;28;19912;-84
2023/05/18 04:14:19;;;;;;;;;;;;;;;17.78;64.13;100911.06;5053985;28;19973;-84
2023/05/18 04:16:45;;;;;;;;;;;;;;;17.78;63.31;100910.13;5058089;28;19920;-84
2023/05/18 04:19:11;;;;;;;;;;;;;;;17.78;63.55;100905.78;5055357;28;19916;-84
2023/05/18 04:21:37;;;;;;;;;;;;;;;17.69;64.20;100909.06;5072108;28;20027;-84
2023/05/18 04:24:06;;;;;;;;;;;;;;;17.76;64.25;100906.56;5090812;28;19998;-85
2023/05/18 04:26:37;;;;;;;;;;;;;;;17.76;63.38;100903.91;5056656;28;20003;-84
2023/05/18 04:29:02;;;;;;;;;;;;;;;17.73;63.21;100902.09;5065461;28;19995;-84
2023/05/18 04:31:28;;;;;;;;;;;;;;;17.68;64.42;100899.34;5067359;28;20015;-83
2023/05/18 04:33:54;;;;;;;;;;;;;;;17.66;64.05;100908.06;5091645;28;19928;-84
2023/05/18 04:36:19;;;;;;;;;;;;;;;17.66;63.09;100908.06;5094436;28;19916;-83
2023/05/18 04:38:45;;;;;;;;;;;;;;;17.72;64.21;100910.88;5041965;28;20409;-84
2023/05/18 04:41:11;;;;;;;;;;;;;;;17.74;63.46;100926.75;5088073;28;19923;-86
2023/05/18 04:43:36;;;;;;;;;;;;;;;17.78;63.25;100923.34;5075442;28;20015;-86
2023/05/18 04:46:02;;;;;;;;;;;;;;;17.80;63.78;100927.84;5059790;28;20312;-86
2023/05/18 04:48:28;;;;;;;;;;;;;;;17.81;63.52;100926.97;5054820;28;19935;-84
2023/05/18 04:50:54;;;;;;;;;;;;;;;17.81;64.15;100924.34;5090754;28;19916;-84
2023/05/18 04:53:20;;;;;;;;;;;;;;;17.73;63.73;100917.94;5064573;28;19920;-85
2023/05/18 04:55:48;;;;;;;;;;;;;;;17.70;63.85;100908.19;5074562;28;19924;-86
2023/05/18 04:58:14;;;;;;;;;;;;;;;17.70;64.17;100902.03;5087939;28;19916;-86
2023/05/18 05:00:40;;;;;;;;;;;;;;;17.68;63.70;100911.66;5070228;28;19943;-86
2023/05/18 05:03:05;;;;;;;;;;;;;;;17.72;63.61;100905.59;5070255;28;19924;-86
2023/05/18 05:05:30;;;;;;;;;;;;;;;17.73;64.53;100914.41;5087613;28;19917;-84
2023/05/18 05:07:57;;;;;;;;;;;;;;;17.77;63.81;100921.56;5086828;28;19974;-86
2023/05/18 05:10:23;;;;;;;;;;;;;;;17.79;64.10;100917.22;5072139;28;19916;-85
2023/05/18 05:12:48;;;;;;;;;;;;;;;17.72;63.41;100916.16;5070916;28;19923;-84
2023/05/18 05:15:14;;;;;;;;;;;;;;;17.78;63.62;100920.69;5068550;28;19999;-86
2023/05/18 05:17:40;;;;;;;;;;;;;;;17.74;63.68;100909.19;5082846;28;20396;-86
2023/05/18 05:20:05;;;;;;;;;;;;;;;17.70;63.33;100917.88;5085708;28;20577;-86
2023/05/18 05:22:31;;;;;;;;;;;;;;;17.63;63.71;100910.63;5071982;28;19977;-85
2023/05/18 05:24:56;;;;;;;;;;;;;;;17.74;63.26;100917.09;5066531;28;19916;-85
2023/05/18 05:27:23;;;;;;;;;;;;;;;17.65;63.55;100912.47;5071882;28;20469;-86
2023/05/18 05:29:49;;;;;;;;;;;;;;;17.67;63.48;100909.84;5073023;28;19916;-87
2023/05/18 05:32:17;;;;;;;;;;;;;;;17.74;63.55;100906.53;5088575;28;19916;-90
2023/05/18 05:34:45;;;;;;;;;;;;;;;17.73;63.67;100917.06;5092189;28;20397;-89
2023/05/18 05:37:11;;;;;;;;;;;;;;;17.74;62.84;100926.75;5087075;28;20382;-88
2023/05/18 05:39:37;;;;;;;;;;;;;;;17.75;63.31;100925.91;5052313;28;19923;-90
2023/05/18 05:42:02;;;;;;;;;;;;;;;17.77;62.62;100929.50;5069194;28;19927;-88
2023/05/18 05:44:27;;;;;;;;;;;;;;;17.72;63.15;100925.84;5086781;28;19959;-89
2023/05/18 05:46:53;;;;;;;;;;;;;;;17.72;63.55;100925.84;5089751;28;20014;-87
2023/05/18 05:49:18;;;;;;;;;;;;;;;17.58;63.47;100930.72;5066240;28;19952;-88
2023/05/18 05:51:44;;;;;;;;;;;;;;;17.51;64.40;100927.03;5063801;28;19916;-89
2023/05/18 05:54:09;;;;;;;;;;;;;;;17.52;64.27;100923.53;5073227;28;20445;-86
2023/05/18 05:56:36;;;;;;;;;;;;;;;17.48;64.04;100919.94;5087405;28;19916;-87
2023/05/18 05:59:01;;;;;;;;;;;;;;;17.47;64.49;100917.22;5068239;28;19923;-87
2023/05/18 06:01:27;;;;;;;;;;;;;;;17.44;64.65;100925.06;5072349;28;20325;-87
2023/05/18 06:03:53;;;;;;;;;;;;;;;17.46;64.62;100923.34;5085362;28;19916;-87
2023/05/18 06:06:20;;;;;;;;;;;;;;;17.47;64.49;100922.50;5085413;28;19920;-88
2023/05/18 06:08:47;;;;;;;;;;;;;;;17.46;64.71;100921.63;5064128;28;19924;-87
2023/05/18 06:11:12;;;;;;;;;;;;;;;17.47;64.53;100935.72;5092765;28;19983;-90
2023/05/18 06:13:38;;;;;;;;;;;;;;;17.46;64.67;100940.13;5071607;28;20425;-88
2023/05/18 06:16:06;;;;;;;;;;;;;;;17.45;64.66;100937.41;5089083;28;19916;-88
2023/05/18 06:18:33;;;;;;;;;;;;;;;17.49;65.10;100944.56;5064022;28;20122;-89
2023/05/18 06:20:59;;;;;;;;;;;;;;;17.45;64.71;100942.69;5093517;28;19917;-88
2023/05/18 06:23:25;;;;;;;;;;;;;;;17.47;65.17;100944.53;5068041;28;20682;-88
2023/05/18 06:25:52;;;;;;;;;;;;;;;17.47;65.15;100939.25;5073771;28;19920;-90
2023/05/18 06:28:17;;;;;;;;;;;;;;;17.44;65.17;100948.81;5091962;28;19966;-89
2023/05/18 06:30:43;;;;;;;;;;;;;;;17.43;65.30;100942.66;5087469;28;19915;-89
2023/05/18 06:33:09;;;;;;;;;;;;;;;17.45;64.84;100950.63;5090286;28;19916;-89
2023/05/18 06:35:36;;;;;;;;;;;;;;;17.43;65.03;100940.00;5087740;28;19947;-90
2023/05/18 06:38:02;;;;;;;;;;;;;;;17.52;64.42;100930.56;5047129;28;19923;-87
2023/05/18 06:40:30;;;;;;;;;;;;;;;17.57;63.73;100928.94;5069340;28;19916;-90
2023/05/18 06:42:55;;;;;;;;;;;;;;;17.61;63.23;100942.28;5087975;28;20006;-88
2023/05/18 06:45:21;;;;;;;;;;;;;;;17.62;63.29;100949.34;5084410;28;20006;-89
2023/05/18 06:47:47;;;;;;;;;;;;;;;17.59;63.60;100943.06;5085289;28;19920;-88
2023/05/18 06:50:12;;;;;;;;;;;;;;;17.59;63.45;100932.50;5087350;28;19923;-87
2023/05/18 06:52:38;;;;;;;;;;;;;;;17.58;63.16;100934.25;5091192;28;20002;-88
2023/05/18 06:55:04;;;;;;;;;;;;;;;17.63;62.69;100951.16;5053935;28;20536;-88
2023/05/18 06:57:30;;;;;;;;;;;;;;;17.68;62.65;100948.63;5087207;28;19916;-88
2023/05/18 07:00:00;;;;;;;;;;;;;;;17.63;62.76;100942.31;5074329;28;19924;-90
2023/05/18 07:02:25;;;;;;;;;;;;;;;17.66;62.95;100939.78;5086073;28;19995;-90
2023/05/18 07:04:51;;;;;;;;;;;;;;;17.67;62.29;100941.53;5070391;28;20015;-90
2023/05/18 07:07:16;;;;;;;;;;;;;;;17.64;62.91;100939.72;5064905;28;19916;-90
2023/05/18 07:09:44;;;;;;;;;;;;;;;17.60;62.85;100948.41;5057549;28;19920;-94
2023/05/18 07:15:03;;;;;;;;;;;;;;;17.59;62.78;100969.47;5091217;28;19973;-90
2023/05/18 07:17:58;;;;;;;;;;;;;;;17.59;62.79;100970.41;5053962;28;20019;-93
2023/05/18 07:20:35;;;;;;;;;;;;;;;17.58;63.07;100973.88;5071793;28;20343;-91
2023/05/18 07:23:18;;;;;;;;;;;;;;;17.56;62.95;100975.56;5074094;28;19927;-92
2023/05/18 07:25:50;;;;;;;;;;;;;;;17.60;62.48;100969.53;5061498;28;19950;-92
2023/05/18 07:28:17;;;;;;;;;;;;;;;17.57;62.73;100972.09;5063252;28;19926;-90
2023/05/18 07:30:43;;;;;;;;;;;;;;;17.62;62.52;100980.16;5083751;28;19920;-83
2023/05/18 07:33:09;;;;;;;;;;;;;;;17.63;62.85;100977.56;5090107;28;19973;-82
2023/05/18 07:35:35;;;;;;;;;;;;;;;17.63;62.45;100981.91;5059316;28;19913;-81
2023/05/18 07:38:00;;;;;;;;;;;;;;;17.64;62.66;100983.72;5070331;28;19920;-81
2023/05/18 07:40:26;;;;;;;;;;;;;;;17.65;65.41;100978.50;5090549;28;19912;-81
2023/05/18 07:42:52;;;;;;;;;;;;;;;17.64;66.91;100974.06;5090382;28;19920;-80
2023/05/18 07:45:18;;;;;;;;;;;;;;;17.63;68.12;100977.56;5070241;28;20003;-80
2023/05/18 07:47:47;;;;;;;;;;;;;;;17.54;68.86;100979.91;5091232;28;19920;-80
2023/05/18 07:50:13;;;;;;;;;;;;;;;17.61;68.69;100983.63;5066099;28;19916;-80
2023/05/18 07:52:39;;;;;;;;;;;;;;;17.54;67.88;100990.47;5080135;28;19966;-80
2023/05/18 07:55:05;;;;;;;;;;;;;;;17.58;66.59;100994.13;5053990;28;19913;-81
2023/05/18 07:57:31;;;;;;;;;;;;;;;17.56;66.69;100994.06;5090491;28;20004;-81
2023/05/18 07:59:56;;;;;;;;;;;;;;;17.53;66.04;100999.25;5088072;28;19982;-81
2023/05/18 08:02:22;;;;;;;;;;;;;;;17.52;65.73;101005.38;5083428;28;19950;-80
2023/05/18 08:04:47;;;;;;;;;;;;;;;17.52;65.84;101008.03;5072318;28;19916;-81
2023/05/18 08:07:13;;;;;;;;;;;;;;;17.54;65.26;101016.88;5089484;28;20313;-80
2023/05/18 08:09:38;;;;;;;;;;;;;;;17.54;65.44;101018.63;5072111;28;19912;-82
2023/05/18 08:12:05;;;;;;;;;;;;;;;17.55;65.20;101020.44;5090434;28;19916;-82
2023/05/18 08:14:30;;;;;;;;;;;;;;;17.55;65.31;101016.06;5072848;28;19920;-82
2023/05/18 08:16:55;;;;;;;;;;;;;;;17.54;65.30;101019.53;5090145;28;19912;-82
2023/05/18 08:19:21;;;;;;;;;;;;;;;17.55;64.37;101023.09;5072132;28;19923;-81
2023/05/18 08:21:46;;;;;;;;;;;;;;;17.61;65.35;101028.50;5090357;28;19920;-82
2023/05/18 08:24:11;;;;;;;;;;;;;;;17.55;65.27;101029.25;5053076;28;20040;-82
2023/05/18 08:26:37;;;;;;;;;;;;;;;17.56;65.29;101035.41;5090720;28;19916;-82
2023/05/18 08:29:08;;;;;;;;;;;;;;;17.54;65.19;101035.38;5083302;28;20382;-82
2023/05/18 08:31:35;;;;;;;;;;;;;;;17.56;65.15;101048.63;5085889;28;19912;-82
2023/05/18 08:34:00;;;;;;;;;;;;;;;17.56;65.32;101048.63;5090098;28;19922;-83
2023/05/18 08:36:26;;;;;;;;;;;;;;;17.54;65.75;101052.97;5089654;28;19920;-83
2023/05/18 08:38:52;;;;;;;;;;;;;;;17.50;65.83;101070.44;5087100;28;20553;-82
2023/05/18 08:41:21;;;;;;;;;;;;;;;17.49;65.89;101074.84;5071244;28;19916;-81
2023/05/18 08:43:47;;;;;;;;;;;;;;;17.46;66.00;101074.75;5089292;28;19912;-80
2023/05/18 08:46:20;;;;;;;;;;;;;;;17.48;66.01;101082.72;5058845;28;19916;-81
2023/05/18 08:48:45;;;;;;;;;;;;;;;17.47;65.86;101080.94;5064592;28;19931;-81
2023/05/18 08:51:11;;;;;;;;;;;;;;;17.47;65.65;101080.94;5066693;28;19912;-82
2023/05/18 08:53:36;;;;;;;;;;;;;;;17.50;65.45;101081.94;5050601;28;19939;-81
2023/05/18 08:56:02;;;;;;;;;;;;;;;17.53;65.29;101088.16;5068654;28;19912;-80
2023/05/18 08:58:34;;;;;;;;;;;;;;;17.54;65.01;101092.56;5070228;28;20011;-81
2023/05/18 09:01:00;;;;;;;;;;;;;;;17.53;65.07;101099.59;5052334;28;19913;-81
2023/05/18 09:03:26;;;;;;;;;;;;;;;17.49;65.25;101100.34;5070544;28;19970;-80
2023/05/18 09:05:51;;;;;;;;;;;;;;;17.55;65.00;101097.91;5070118;28;19966;-81
2023/05/18 09:08:17;;;;;;;;;;;;;;;17.58;64.66;101094.47;5068896;28;20462;-80
2023/05/18 09:10:42;;;;;;;;;;;;;;;17.64;63.96;101102.56;5052843;28;20037;-82
2023/05/18 09:13:08;;;;;;;;;;;;;;;17.60;64.51;101112.13;5052764;28;19912;-82
2023/05/18 09:15:34;;;;;;;;;;;;;;;17.57;64.61;101109.41;5069276;28;20539;-82
2023/05/18 09:17:59;;;;;;;;;;;;;;;17.53;65.07;101114.56;5051691;28;20381;-82
2023/05/18 09:20:25;;;;;;;;;;;;;;;17.57;64.59;101114.69;5053861;28;19931;-82
2023/05/18 09:22:50;;;;;;;;;;;;;;;17.56;64.45;101117.28;5071421;28;19920;-81
2023/05/18 09:25:15;;;;;;;;;;;;;;;17.57;64.59;101119.06;5056172;28;19927;-82
2023/05/18 09:27:41;;;;;;;;;;;;;;;17.55;64.74;101120.78;5063850;28;20388;-86
2023/05/18 09:30:09;;;;;;;;;;;;;;;17.60;63.91;101124.44;5055015;28;19912;-85
2023/05/18 09:32:37;;;;;;;;;;;;;;;17.63;65.16;101116.63;5052916;28;19921;-85
2023/05/18 09:35:05;;;;;;;;;;;;;;;17.67;64.92;101123.78;5047870;28;20003;-87
2023/05/18 09:37:30;;;;;;;;;;;;;;;17.78;64.60;101121.47;5066025;28;19920;-85
2023/05/18 09:40:00;;;;;;;;;;;;;;;17.74;64.62;101128.41;5055428;28;19920;-85
2023/05/18 09:42:43;;;;;;;;;;;;;;;17.76;65.10;101129.38;5072994;28;19920;-84
2023/05/18 09:45:16;;;;;;;;;;;;;;;17.83;64.79;101123.44;5070457;28;20011;-85
2023/05/18 09:47:41;;;;;;;;;;;;;;;17.76;64.42;101124.09;5084073;28;20007;-85
2023/05/18 09:50:07;;;;;;;;;;;;;;;17.62;65.34;101123.66;5076064;28;19999;-85
2023/05/18 09:52:39;;;;;;;;;;;;;;;17.62;64.88;101125.41;5073964;28;20392;-85
2023/05/18 09:55:05;;;;;;;;;;;;;;;17.65;64.59;101122.84;5093658;28;19920;-85
2023/05/18 09:57:30;;;;;;;;;;;;;;;17.61;64.86;101129.78;5091560;28;19924;-85
2023/05/18 09:59:56;;;;;;;;;;;;;;;17.60;64.49;101133.25;5075710;28;19912;-85
2023/05/18 10:02:24;;;;;;;;;;;;;;;17.73;64.02;101129.25;5075258;28;20380;-85
2023/05/18 10:04:49;;;;;;;;;;;;;;;17.72;64.46;101135.41;5076027;28;19944;-85
2023/05/18 10:07:15;;;;;;;;;;;;;;;17.78;65.11;101134.66;5091438;28;20000;-86
2023/05/18 10:09:46;;;;;;;;;;;;;;;17.77;65.10;101122.31;5074054;28;19926;-85
2023/05/18 10:12:36;;;;;;;;;;;;;;;17.81;64.94;101124.22;5064269;28;19916;-86
2023/05/18 10:15:25;;;;;;;;;;;;;;;17.75;64.30;101119.63;5050828;28;19920;-86
2023/05/18 10:18:13;;;;;;;;;;;;;;;17.76;64.05;101107.31;5063081;28;19931;-87
2023/05/18 10:20:50;;;;;;;;;;;;;;;17.70;64.39;101108.03;5082123;28;20312;-90
2023/05/18 10:23:38;;;;;;;;;;;;;;;17.71;64.50;101101.91;5066012;28;19921;-90
2023/05/18 10:26:27;;;;;;;;;;;;;;;17.74;64.30;101095.81;5089723;28;19916;-87
2023/05/18 10:28:53;;;;;;;;;;;;;;;17.76;64.05;101107.31;5070128;28;19955;-89
2023/05/18 10:32:01;;;;;;;;;;;;;;;17.76;63.70;101108.22;5067816;28;20433;-87
2023/05/18 10:35:05;;;;;;;;;;;;;;;17.77;63.95;101114.41;5085543;28;20377;-88
2023/05/18 10:37:36;;;;;;;;;;;;;;;17.72;63.72;101111.63;5066973;28;19920;-87
2023/05/18 10:40:07;;;;;;;;;;;;;;;17.77;63.95;101111.75;5034441;28;20433;-87
2023/05/18 10:42:57;;;;;;;;;;;;;;;17.76;63.92;101112.59;5087231;28;20056;-86
2023/05/18 10:45:33;;;;;;;;;;;;;;;17.68;63.91;101115.91;5084754;28;20366;-86
2023/05/18 10:48:13;;;;;;;;;;;;;;;17.74;63.85;101119.56;5058731;28;19928;-85
2023/05/18 10:54:06;;;;;;;;;;;;;;;17.74;64.41;101114.28;5079742;28;19974;-86
2023/05/18 10:56:31;;;;;;;;;;;;;;;17.73;63.96;101112.53;5075750;28;19970;-84
2023/05/18 10:58:57;;;;;;;;;;;;;;;17.78;65.60;101103.88;5084329;28;19916;-85
2023/05/18 11:01:22;;;;;;;;;;;;;;;17.80;64.99;101104.84;5073880;28;20362;-84
2023/05/18 11:03:48;;;;;;;;;;;;;;;17.74;64.97;101115.22;5056713;28;19942;-84
2023/05/18 11:06:13;;;;;;;;;;;;;;;17.74;64.66;101102.00;5072672;28;19912;-84
2023/05/18 11:08:43;;;;;;;;;;;;;;;17.71;64.99;101107.19;5067581;28;20394;-84
2023/05/18 11:11:08;;;;;;;;;;;;;;;17.73;64.50;101105.47;5089082;28;19947;-84
2023/05/18 11:13:34;;;;;;;;;;;;;;;17.74;64.94;101109.94;5069895;28;19959;-85
2023/05/18 11:16:00;;;;;;;;;;;;;;;17.75;64.81;101097.63;5073034;28;19916;-86
2023/05/18 11:18:35;;;;;;;;;;;;;;;17.81;64.53;101100.44;5088887;28;20412;-84
2023/05/18 11:21:01;;;;;;;;;;;;;;;17.72;64.75;101095.78;5068566;28;20381;-84
2023/05/18 11:23:30;;;;;;;;;;;;;;;17.78;64.41;101093.31;5081448;28;19978;-84
2023/05/18 11:26:01;;;;;;;;;;;;;;;17.84;64.55;101095.25;5062339;28;19922;-86
2023/05/18 11:28:27;;;;;;;;;;;;;;;17.76;64.71;101088.81;5070330;28;20019;-83
2023/05/18 11:30:53;;;;;;;;;;;;;;;17.75;64.61;101084.41;5069716;28;20007;-85
2023/05/18 11:33:23;;;;;;;;;;;;;;;17.76;64.47;101084.47;5073975;28;20003;-85
2023/05/18 11:36:07;;;;;;;;;;;;;;;17.85;64.11;101082.09;5072545;28;19959;-85
2023/05/18 11:38:49;;;;;;;;;;;;;;;17.78;64.54;101076.56;5092016;28;20400;-85
2023/05/18 11:41:27;;;;;;;;;;;;;;;17.79;64.89;101073.97;5087670;28;19916;-84
2023/05/18 11:44:05;;;;;;;;;;;;;;;17.75;64.73;101077.38;5087549;28;20203;-84
2023/05/18 11:46:31;;;;;;;;;;;;;;;17.81;64.55;101079.31;5091802;28;19916;-85
2023/05/18 11:48:56;;;;;;;;;;;;;;;17.79;64.66;101081.00;5068654;28;20304;-85
2023/05/18 11:51:24;;;;;;;;;;;;;;;17.88;64.08;101087.47;5073492;28;19968;-85
2023/05/18 11:53:49;;;;;;;;;;;;;;;17.86;64.85;101086.56;5073649;28;20423;-85
2023/05/18 11:56:15;;;;;;;;;;;;;;;17.88;64.60;101087.47;5073455;28;20007;-83
2023/05/18 11:58:40;;;;;;;;;;;;;;;17.93;64.97;101078.78;5065975;28;19916;-83
2023/05/18 12:01:10;;;;;;;;;;;;;;;17.84;65.01;101087.34;5071914;28;20385;-87
2023/05/18 12:03:35;;;;;;;;;;;;;;;17.83;65.88;101090.84;5072329;28;20043;-85
2023/05/18 12:06:01;;;;;;;;;;;;;;;17.85;65.41;101090.03;5086838;28;20062;-86
2023/05/18 12:08:28;;;;;;;;;;;;;;;17.83;65.75;101081.16;5054622;28;20394;-84
2023/05/18 12:10:56;;;;;;;;;;;;;;;17.86;65.55;101078.63;5063717;28;20034;-86
2023/05/18 12:13:21;;;;;;;;;;;;;;;17.86;65.91;101075.06;5072504;28;19920;-85
2023/05/18 12:15:47;;;;;;;;;;;;;;;17.86;66.35;101073.34;5070069;28;19923;-85
2023/05/18 12:18:13;;;;;;;;;;;;;;;17.82;65.91;101065.22;5069122;28;19916;-87
2023/05/18 12:20:39;;;;;;;;;;;;;;;17.83;66.13;101065.31;5089014;28;20412;-86
2023/05/18 12:23:04;;;;;;;;;;;;;;;17.88;65.95;101065.44;5044570;28;20500;-86
2023/05/18 12:25:29;;;;;;;;;;;;;;;17.92;65.66;101064.69;5068652;28;19962;-86
2023/05/18 12:27:58;;;;;;;;;;;;;;;17.87;65.59;101061.03;5067011;28;20032;-86
2023/05/18 12:30:25;;;;;;;;;;;;;;;17.90;66.20;101061.09;5066456;28;19947;-86
2023/05/18 12:32:50;;;;;;;;;;;;;;;17.85;66.38;101055.69;5068930;28;19920;-85
2023/05/18 12:35:20;;;;;;;;;;;;;;;17.87;66.34;101056.63;5086282;28;19923;-86
2023/05/18 12:37:46;;;;;;;;;;;;;;;17.90;66.58;101067.28;5055420;28;19916;-85
2023/05/18 12:40:16;;;;;;;;;;;;;;;17.96;66.48;101071.84;5075501;28;20412;-85
2023/05/18 12:42:54;;;;;;;;;;;;;;;17.94;66.41;101077.94;5055324;28;20416;-87